Airfield :
LOGIN :

Register | Disclaimer

   EN    FR    IT 

 










Legend :    VFR   Marginal VFR   IFR   Intensive IFR   Very Intensive IFR
Visi :
Ceiling :
>= 8 km
>= 3000ft
5 to 8 km
1000 to 3000 ft
1500m to 5 km
500 to 1000 ft
800 to 1500m
200 to 500 ft
< 800m
< 200 ft
Symbols :   Thunderstorms  Fog  Heavy snow  Heavy precipitations  Wind > 20 kt
SIGMETs :     Misc.  Thunderstorms  Icing  Turbulence  Mountain Waves  Volcanic Ashes






- Airport Elevation : 1895 ft


LSMM - Meiringen

CURRENT METAR :
  • 161720Z AUTO VRB01KT 9999NDV -RA FEW016 SCT027 17/17 Q1017 RMK

EXPIRED METARs :
  • 161650Z AUTO VRB02KT 9999NDV -RA FEW025 BKN029 17/17 Q1017 RERA RMK
  • 161620Z AUTO 24005KT 7000NDV -RA FEW017 BKN034 OVC062 17/17 Q1017 RERA RMK
  • 161550Z AUTO 22006KT 8000NDV SHRA FEW013 BKN033 18/18 Q1017 RMK
  • 161520Z AUTO 26007KT 240V320 9999NDV -SHRA FEW016 BKN020 OVC031 18/17 Q1017 RMK
  • 161450Z AUTO 26005KT 210V320 9999NDV BKN025 BKN065 OVC083 19/16 Q1016 RMK

Expired Forecast.



MET'MAP, your aeronautical weather chart ! - Copyright ORBIFLY December 2007 - Disclaimer

ORBIFLY MET'MAP TEAM :

Programming & Development : Alexandra Zaïnal
Concept & original design : Baudouin d'Aumeries
Assistance for programming : Marc-Olivier Méhu
Technical & hardware support : Manuel Goepfert

Contact : metmap@orbifly.com




SOURCES & CREDITS :

   NOAA